This is the latest recevied weather packets stored in our database for station/object VE7PRT-1. If no packets are shown the sender has not sent any weather packets the latest 10 day(s).
| Time | Temp. | Humidity | Pressure | Rain* | Wind** | Luminosity | Snow |
|---|---|---|---|---|---|---|---|
| 1777772527 | 22.78° C | 61% | 1014.8 hPa | 0 mm | - | - | - |
| 1777771707 | 23.33° C | 59% | 1014.8 hPa | 0 mm | - | - | - |
| 1777770887 | 23.89° C | 58% | 1014.8 hPa | 0 mm | - | - | - |
| 1777770104 | 24.44° C | 58% | 1014.8 hPa | 0 mm | - | - | - |
| 1777769234 | 24.44° C | 59% | 1014.9 hPa | 0 mm | - | - | - |
| 1777768487 | 23.89° C | 59% | 1015 hPa | 0 mm | - | - | - |
| 1777767648 | 22.78° C | 60% | 1015.1 hPa | 0 mm | - | - | - |
| 1777766922 | 23.33° C | 59% | 1015.3 hPa | 0 mm | - | - | - |
| 1777766047 | 23.89° C | 58% | 1015.4 hPa | 0 mm | - | - | - |
| 1777765309 | 23.89° C | 58% | 1015.5 hPa | 0 mm | - | - | - |
| 1777764459 | 23.89° C | 58% | 1015.6 hPa | 0 mm | - | - | - |
| 1777763587 | 23.89° C | 62% | 1015.7 hPa | 0 mm | - | - | - |
| 1777762768 | 23.33° C | 61% | 1016 hPa | 0 mm | - | - | - |
| 1777761868 | 23.33° C | 62% | 1016.3 hPa | 0 mm | - | - | - |
| 1777761147 | 22.78° C | 65% | 1016.4 hPa | 0 mm | - | - | - |
| 1777760359 | 21.67° C | 65% | 1016.5 hPa | 0 mm | - | - | - |
| 1777759534 | 21.11° C | 68% | 1016.6 hPa | 0 mm | - | - | - |
| 1777758759 | 20° C | 73% | 1016.8 hPa | 0 mm | - | - | - |
| 1777758014 | 18.89° C | 75% | 1017 hPa | 0 mm | - | - | - |
| 1777757138 | 17.78° C | 82% | 1017.1 hPa | 0 mm | - | - | - |
| 1777756399 | 17.22° C | 85% | 1017.4 hPa | 0 mm | - | - | - |
| 1777755519 | 17.22° C | 85% | 1017.5 hPa | 0 mm | - | - | - |
| 1777754669 | 17.22° C | 86% | 1017.4 hPa | 0 mm | - | - | - |
| 1777753794 | 16.11° C | 90% | 1017.5 hPa | 0 mm | - | - | - |
| 1777752927 | 15.56° C | 91% | 1017.7 hPa | 0 mm | - | - | - |
* Rain latest hour (hover to see other rain measurements)
** Current wind speed in m/s (hover to see current wind gust speed)